createdAt,value
2018-01-07T00:02:16.159Z,3.49
2018-01-07T00:04:46.959Z,3.54
2018-01-07T00:07:17.810Z,3.36
2018-01-07T00:09:48.638Z,3.58
2018-01-07T00:12:19.449Z,3.48
2018-01-07T00:14:50.255Z,3.47
2018-01-07T00:17:21.153Z,3.40
2018-01-07T00:19:51.943Z,3.42
2018-01-07T00:22:22.747Z,3.27
2018-01-07T00:24:53.549Z,3.35
2018-01-07T00:27:24.350Z,3.20
2018-01-07T00:29:55.157Z,3.20
2018-01-07T00:32:25.920Z,3.17
2018-01-07T00:34:56.731Z,3.22
2018-01-07T00:37:27.519Z,3.10
2018-01-07T00:39:58.362Z,3.17
2018-01-07T00:42:29.177Z,3.15
2018-01-07T00:44:59.991Z,3.13
2018-01-07T00:47:30.771Z,3.15
2018-01-07T00:50:01.535Z,3.13
2018-01-07T00:52:32.352Z,3.12
2018-01-07T00:55:03.151Z,3.04
2018-01-07T00:57:33.930Z,3.05
2018-01-07T01:00:04.709Z,3.07
2018-01-07T01:02:35.494Z,3.14
2018-01-07T01:05:06.236Z,3.16
2018-01-07T01:07:37.008Z,3.14
2018-01-07T01:10:07.812Z,3.20
2018-01-07T01:12:38.649Z,3.24
2018-01-07T01:15:09.427Z,3.23
2018-01-07T01:17:40.197Z,3.25
2018-01-07T01:20:10.952Z,3.30
2018-01-07T01:22:41.721Z,3.30
2018-01-07T01:25:12.476Z,3.29
2018-01-07T01:27:43.247Z,3.31
2018-01-07T01:30:14.001Z,3.45
2018-01-07T01:32:44.797Z,3.40
2018-01-07T01:35:15.540Z,3.26
2018-01-07T01:37:46.301Z,3.28
2018-01-07T01:40:17.063Z,3.26
2018-01-07T01:42:47.904Z,3.32
2018-01-07T01:45:18.674Z,3.27
2018-01-07T01:47:49.461Z,3.27
2018-01-07T01:50:20.224Z,3.26
2018-01-07T01:52:50.984Z,3.28
2018-01-07T01:55:21.820Z,3.31
2018-01-07T01:57:52.600Z,3.29
2018-01-07T02:00:23.374Z,3.34
2018-01-07T02:02:54.142Z,3.29
2018-01-07T02:05:24.896Z,3.18
2018-01-07T02:07:55.678Z,3.15
2018-01-07T02:10:26.429Z,3.08
2018-01-07T02:12:57.193Z,3.10
2018-01-07T02:15:27.953Z,3.13
2018-01-07T02:17:58.716Z,3.11
2018-01-07T02:20:29.510Z,3.09
2018-01-07T02:23:00.301Z,3.05
2018-01-07T02:25:31.058Z,2.98
2018-01-07T02:28:01.821Z,3.03
2018-01-07T02:30:32.618Z,3.02
2018-01-07T02:33:03.410Z,3.00
2018-01-07T02:35:34.180Z,3.03
2018-01-07T02:38:04.952Z,3.05
2018-01-07T02:40:35.741Z,2.96
2018-01-07T02:43:06.546Z,2.99
2018-01-07T02:45:37.316Z,2.95
2018-01-07T02:48:08.100Z,2.94
2018-01-07T02:50:38.933Z,2.93
2018-01-07T02:53:09.729Z,2.91
2018-01-07T02:55:40.482Z,2.94
2018-01-07T02:58:11.254Z,2.93
2018-01-07T03:00:47.828Z,2.93
2018-01-07T03:03:18.593Z,2.95
2018-01-07T03:05:49.344Z,2.94
2018-01-07T03:08:20.101Z,2.98
2018-01-07T03:10:50.840Z,3.06
2018-01-07T03:13:21.620Z,3.00
2018-01-07T03:15:52.381Z,3.01
2018-01-07T03:18:23.151Z,2.98
2018-01-07T03:20:53.904Z,2.99
2018-01-07T03:23:24.680Z,3.03
2018-01-07T03:25:55.423Z,2.99
2018-01-07T03:28:26.194Z,2.95
2018-01-07T03:30:56.951Z,2.92
2018-01-07T03:33:27.743Z,3.00
2018-01-07T03:35:58.508Z,2.95
2018-01-07T03:38:29.269Z,3.07
2018-01-07T03:41:00.182Z,3.01
2018-01-07T03:43:30.964Z,2.96
2018-01-07T03:46:01.735Z,3.02
2018-01-07T03:48:32.520Z,3.05
2018-01-07T03:51:03.294Z,3.10
2018-01-07T03:53:34.059Z,3.09
2018-01-07T03:56:04.817Z,3.13
2018-01-07T03:58:35.586Z,3.12
2018-01-07T04:01:06.357Z,3.09
2018-01-07T04:03:37.137Z,3.20
2018-01-07T04:06:07.884Z,3.18
2018-01-07T04:08:38.669Z,3.17
2018-01-07T04:11:09.433Z,3.20
2018-01-07T04:13:40.212Z,3.27
2018-01-07T04:16:10.963Z,3.35
2018-01-07T04:18:41.749Z,3.28
2018-01-07T04:21:12.494Z,3.36
2018-01-07T04:23:43.267Z,3.31
2018-01-07T04:26:14.030Z,3.31
2018-01-07T04:28:44.800Z,3.36
2018-01-07T04:31:15.553Z,3.37
2018-01-07T04:33:46.313Z,3.39
2018-01-07T04:36:17.056Z,3.40
2018-01-07T04:38:47.829Z,3.52
2018-01-07T04:41:18.580Z,3.58
2018-01-07T04:43:49.353Z,3.60
2018-01-07T04:46:20.102Z,3.68
2018-01-07T04:48:50.889Z,3.69
2018-01-07T04:51:21.637Z,3.68
2018-01-07T04:53:52.409Z,3.68
2018-01-07T04:56:23.218Z,3.68
2018-01-07T04:58:53.963Z,3.78
2018-01-07T05:01:24.716Z,3.77
2018-01-07T05:03:55.489Z,3.75
2018-01-07T05:06:26.269Z,3.78
2018-01-07T05:08:57.026Z,3.80
2018-01-07T05:11:27.772Z,3.79
2018-01-07T05:13:58.528Z,3.83
2018-01-07T05:16:29.276Z,3.81
2018-01-07T05:21:37.476Z,3.93
2018-01-07T05:24:08.209Z,3.91
2018-01-07T05:26:38.964Z,3.86
2018-01-07T05:29:09.724Z,3.89
2018-01-07T05:31:40.487Z,3.85
2018-01-07T05:34:11.255Z,3.94
2018-01-07T05:36:42.016Z,3.96
2018-01-07T05:39:12.790Z,4.00
2018-01-07T05:41:43.593Z,3.95
2018-01-07T05:44:14.349Z,4.08
2018-01-07T05:46:45.108Z,4.12
2018-01-07T05:49:15.886Z,4.17
2018-01-07T05:51:46.646Z,4.15
2018-01-07T05:54:17.422Z,4.09
2018-01-07T05:56:48.192Z,4.17
2018-01-07T05:59:18.973Z,4.14
2018-01-07T06:01:49.728Z,4.22
2018-01-07T06:04:20.489Z,4.20
2018-01-07T06:06:51.252Z,4.08
2018-01-07T06:09:22.032Z,4.07
2018-01-07T06:11:52.804Z,4.03
2018-01-07T06:14:23.615Z,3.99
2018-01-07T06:16:54.440Z,3.99
2018-01-07T06:19:25.184Z,3.93
2018-01-07T06:21:55.949Z,3.95
2018-01-07T06:24:26.721Z,4.00
2018-01-07T06:26:57.528Z,3.90
2018-01-07T06:29:28.313Z,3.88
2018-01-07T06:31:59.076Z,3.92
2018-01-07T06:34:29.866Z,3.94
2018-01-07T06:37:00.650Z,3.97
2018-01-07T06:39:31.460Z,3.99
2018-01-07T06:42:02.217Z,3.99
2018-01-07T06:47:10.822Z,4.00
2018-01-07T06:49:41.577Z,4.10
2018-01-07T06:52:12.320Z,3.93
2018-01-07T06:54:43.090Z,4.01
2018-01-07T06:57:13.841Z,3.94
2018-01-07T06:59:44.604Z,3.93
2018-01-07T07:02:15.373Z,4.01
2018-01-07T07:04:46.159Z,3.98
2018-01-07T07:07:23.896Z,4.08
2018-01-07T07:09:54.673Z,4.08
2018-01-07T07:12:25.416Z,4.05
2018-01-07T07:14:56.188Z,4.04
2018-01-07T07:17:26.957Z,4.17
2018-01-07T07:19:57.737Z,4.16
2018-01-07T07:22:28.505Z,4.15
2018-01-07T07:24:59.286Z,4.20
2018-01-07T07:27:30.029Z,4.21
2018-01-07T07:30:00.832Z,4.22
2018-01-07T07:32:31.592Z,4.25
2018-01-07T07:35:02.378Z,4.21
2018-01-07T07:37:33.149Z,4.22
2018-01-07T07:40:03.990Z,4.19
2018-01-07T07:42:34.752Z,4.20
2018-01-07T07:45:05.544Z,4.40
2018-01-07T07:47:36.304Z,4.40
2018-01-07T07:50:07.073Z,4.42
2018-01-07T07:52:37.849Z,4.50
2018-01-07T07:55:10.638Z,4.45
2018-01-07T07:57:41.411Z,4.42
2018-01-07T08:00:12.198Z,4.37
2018-01-07T08:02:42.966Z,4.36
2018-01-07T08:05:13.751Z,4.33
2018-01-07T08:07:46.539Z,4.30
2018-01-07T08:10:17.349Z,4.34
2018-01-07T08:12:48.115Z,4.39
2018-01-07T08:15:18.924Z,4.53
2018-01-07T08:17:49.793Z,4.47
2018-01-07T08:20:22.585Z,4.52
2018-01-07T08:22:53.426Z,4.66
2018-01-07T08:25:25.327Z,4.62
2018-01-07T08:27:58.156Z,4.59
2018-01-07T08:30:28.920Z,4.62
2018-01-07T08:32:59.680Z,4.77
2018-01-07T08:35:30.444Z,4.85
2018-01-07T08:38:02.207Z,4.86
2018-01-07T08:40:32.978Z,4.98
2018-01-07T08:43:07.143Z,4.90
2018-01-07T08:45:37.924Z,4.97
2018-01-07T08:48:13.247Z,5.03
2018-01-07T08:50:44.025Z,4.96
2018-01-07T08:53:14.777Z,5.03
2018-01-07T08:55:45.651Z,5.12
2018-01-07T08:58:16.418Z,5.20
2018-01-07T09:00:47.184Z,5.16
2018-01-07T09:03:24.193Z,5.17
2018-01-07T09:05:54.957Z,5.19
2018-01-07T09:08:25.714Z,5.22
2018-01-07T09:10:56.489Z,5.32
2018-01-07T09:13:31.229Z,5.25
2018-01-07T09:16:02.005Z,5.23
2018-01-07T09:18:32.761Z,5.31
2018-01-07T09:21:03.633Z,5.43
2018-01-07T09:23:34.402Z,5.48
2018-01-07T09:26:05.164Z,5.50
2018-01-07T09:28:35.912Z,5.58
2018-01-07T09:31:06.678Z,5.54
2018-01-07T09:33:37.560Z,5.59
2018-01-07T09:36:08.319Z,5.56
2018-01-07T09:38:39.067Z,5.71
2018-01-07T09:41:10.940Z,5.80
2018-01-07T09:43:41.697Z,5.83
2018-01-07T09:46:12.473Z,5.85
2018-01-07T09:48:43.248Z,5.75
2018-01-07T09:51:15.144Z,5.87
2018-01-07T09:53:45.893Z,5.88
2018-01-07T09:56:16.653Z,5.93
2018-01-07T09:58:47.420Z,6.00
2018-01-07T10:01:18.183Z,6.06
2018-01-07T10:03:48.933Z,6.16
2018-01-07T10:06:19.688Z,6.32
2018-01-07T10:08:50.440Z,6.40
2018-01-07T10:11:21.234Z,6.38
2018-01-07T10:13:52.006Z,6.34
2018-01-07T10:16:22.869Z,6.41
2018-01-07T10:18:53.635Z,6.47
2018-01-07T10:21:24.391Z,6.46
2018-01-07T10:23:56.156Z,6.51
2018-01-07T10:26:26.933Z,6.57
2018-01-07T10:28:57.678Z,6.59
2018-01-07T10:31:29.535Z,6.49
2018-01-07T10:34:01.362Z,6.44
2018-01-07T10:36:32.997Z,6.51
2018-01-07T10:39:03.784Z,6.35
2018-01-07T10:41:34.542Z,6.43
2018-01-07T10:44:05.334Z,6.40
2018-01-07T10:46:36.309Z,6.58
2018-01-07T10:49:07.073Z,6.55
2018-01-07T10:51:37.851Z,6.40
2018-01-07T10:54:08.625Z,6.28
2018-01-07T10:56:40.440Z,6.28
2018-01-07T10:59:11.192Z,6.34
2018-01-07T11:01:48.097Z,6.40
2018-01-07T11:04:18.849Z,6.40
2018-01-07T11:06:52.805Z,6.38
2018-01-07T11:09:23.633Z,6.39
2018-01-07T11:11:54.468Z,6.61
2018-01-07T11:14:25.305Z,6.65
2018-01-07T11:16:56.113Z,6.64
2018-01-07T11:19:27.883Z,6.60
2018-01-07T11:21:58.658Z,6.69
2018-01-07T11:24:31.500Z,6.61
2018-01-07T11:27:02.603Z,6.63
2018-01-07T11:29:33.429Z,6.62
2018-01-07T11:32:07.655Z,6.60
2018-01-07T11:34:39.527Z,6.27
2018-01-07T11:37:10.320Z,6.17
2018-01-07T11:39:41.093Z,6.10
2018-01-07T11:42:11.911Z,6.14
2018-01-07T11:44:42.692Z,6.14
2018-01-07T11:47:13.469Z,6.29
2018-01-07T11:49:44.216Z,6.37
2018-01-07T11:52:14.978Z,6.31
2018-01-07T11:54:45.879Z,6.24
2018-01-07T11:57:16.668Z,6.21
2018-01-07T11:59:47.428Z,6.19
2018-01-07T12:02:18.205Z,6.28
2018-01-07T12:04:52.980Z,6.34
2018-01-07T12:07:23.796Z,6.28
2018-01-07T12:10:01.800Z,6.15
2018-01-07T12:12:32.581Z,6.15
2018-01-07T12:15:03.336Z,6.01
2018-01-07T12:17:34.104Z,5.88
2018-01-07T12:20:04.899Z,5.83
2018-01-07T12:22:35.679Z,5.84
2018-01-07T12:25:06.434Z,5.90
2018-01-07T12:27:37.212Z,5.85
2018-01-07T12:30:07.979Z,5.97
2018-01-07T12:32:39.752Z,5.94
2018-01-07T12:35:10.512Z,5.86
2018-01-07T12:37:41.276Z,5.78
2018-01-07T12:40:12.040Z,5.79
2018-01-07T12:42:43.040Z,5.80
2018-01-07T12:45:13.818Z,5.77
2018-01-07T12:47:45.694Z,5.93
2018-01-07T12:50:16.436Z,5.90
2018-01-07T12:52:47.272Z,5.86
2018-01-07T12:55:18.053Z,5.94
2018-01-07T12:57:48.817Z,6.03
2018-01-07T13:00:19.556Z,6.15
2018-01-07T13:02:50.328Z,6.25
2018-01-07T13:05:21.070Z,6.23
2018-01-07T13:07:51.840Z,6.24
2018-01-07T13:10:22.628Z,6.23
2018-01-07T13:12:55.496Z,6.33
2018-01-07T13:15:26.233Z,6.18
2018-01-07T13:17:57.030Z,6.16
2018-01-07T13:20:27.828Z,6.26
2018-01-07T13:22:58.631Z,6.34
2018-01-07T13:25:30.553Z,6.38
2018-01-07T13:28:01.345Z,6.23
2018-01-07T13:30:37.473Z,6.28
2018-01-07T13:33:08.248Z,6.32
2018-01-07T13:35:38.994Z,6.43
2018-01-07T13:38:09.866Z,6.38
2018-01-07T13:40:40.617Z,6.27
2018-01-07T13:43:11.400Z,6.09
2018-01-07T13:45:42.160Z,6.17
2018-01-07T13:48:18.068Z,6.25
2018-01-07T13:50:48.862Z,6.07
2018-01-07T13:53:19.635Z,6.07
2018-01-07T13:55:50.381Z,6.10
2018-01-07T13:58:22.224Z,6.15
2018-01-07T14:00:52.981Z,6.26
2018-01-07T14:03:23.784Z,6.19
2018-01-07T14:05:54.567Z,6.20
2018-01-07T14:08:27.503Z,6.24
2018-01-07T14:10:58.257Z,6.12
2018-01-07T14:13:29.025Z,5.92
2018-01-07T14:16:04.210Z,5.84
2018-01-07T14:18:35.019Z,5.70
2018-01-07T14:21:05.971Z,5.70
2018-01-07T14:23:36.800Z,5.79
2018-01-07T14:26:07.572Z,5.78
2018-01-07T14:28:38.355Z,5.86
2018-01-07T14:31:10.267Z,6.00
2018-01-07T14:33:41.053Z,6.05
2018-01-07T14:36:13.856Z,6.05
2018-01-07T14:38:45.642Z,6.02
2018-01-07T14:41:16.457Z,6.00
2018-01-07T14:43:47.246Z,5.91
2018-01-07T14:46:18.026Z,5.80
2018-01-07T14:48:55.739Z,5.76
2018-01-07T14:51:26.519Z,5.82
2018-01-07T14:53:58.288Z,5.88
2018-01-07T14:56:29.032Z,5.83
2018-01-07T14:58:59.875Z,5.78
2018-01-07T15:01:30.770Z,5.76
2018-01-07T15:04:01.532Z,5.76
2018-01-07T15:06:36.077Z,5.70
2018-01-07T15:09:06.947Z,5.65
2018-01-07T15:11:38.720Z,5.61
2018-01-07T15:14:09.510Z,5.68
2018-01-07T15:16:44.028Z,5.60
2018-01-07T15:19:14.785Z,5.59
2018-01-07T15:21:52.420Z,5.47
2018-01-07T15:24:23.217Z,5.49
2018-01-07T15:26:53.965Z,5.42
2018-01-07T15:29:29.198Z,5.50
2018-01-07T15:32:00.046Z,5.48
2018-01-07T15:34:32.948Z,5.51
2018-01-07T15:37:03.719Z,5.48
2018-01-07T15:39:34.548Z,5.49
2018-01-07T15:42:05.352Z,5.52
2018-01-07T15:44:37.144Z,5.55
2018-01-07T15:47:07.893Z,5.65
2018-01-07T15:49:39.777Z,5.56
2018-01-07T15:52:10.566Z,5.59
2018-01-07T15:54:46.325Z,5.60
2018-01-07T15:57:17.064Z,5.63
2018-01-07T15:59:47.832Z,5.68
2018-01-07T16:02:18.575Z,5.73
2018-01-07T16:04:49.400Z,5.75
2018-01-07T16:07:20.158Z,5.75
2018-01-07T16:09:50.964Z,5.75
2018-01-07T16:12:21.795Z,5.71
2018-01-07T16:14:52.616Z,5.65
2018-01-07T16:17:23.419Z,5.64
2018-01-07T16:19:54.238Z,5.62
2018-01-07T16:22:24.991Z,5.70
2018-01-07T16:24:55.856Z,5.64
2018-01-07T16:27:26.636Z,5.65
2018-01-07T16:29:57.520Z,5.57
2018-01-07T16:32:30.355Z,5.58
2018-01-07T16:35:01.160Z,5.43
2018-01-07T16:37:31.918Z,5.34
2018-01-07T16:40:02.731Z,5.33
2018-01-07T16:42:33.474Z,5.35
2018-01-07T16:45:04.291Z,5.38
2018-01-07T16:47:35.107Z,5.36
2018-01-07T16:50:05.931Z,5.35
2018-01-07T16:52:37.775Z,5.32
2018-01-07T16:55:08.590Z,5.39
2018-01-07T16:57:39.404Z,5.45
2018-01-07T17:00:10.296Z,5.35
2018-01-07T17:02:41.106Z,5.40
2018-01-07T17:05:11.932Z,5.29
2018-01-07T17:07:43.556Z,5.29
2018-01-07T17:10:16.358Z,5.34
2018-01-07T17:12:48.245Z,5.33
2018-01-07T17:15:19.064Z,5.31
2018-01-07T17:17:49.883Z,5.32
2018-01-07T17:20:22.732Z,5.24
2018-01-07T17:22:53.539Z,5.19
2018-01-07T17:25:24.353Z,5.13
2018-01-07T17:27:55.134Z,5.17
2018-01-07T17:30:25.984Z,5.31
2018-01-07T17:32:56.842Z,5.30
2018-01-07T17:35:27.684Z,5.24
2018-01-07T17:37:58.497Z,5.25
2018-01-07T17:40:29.537Z,5.32
2018-01-07T17:43:00.292Z,5.24
2018-01-07T17:45:31.165Z,5.20
2018-01-07T17:48:04.050Z,5.27
2018-01-07T17:50:35.016Z,5.15
2018-01-07T17:53:05.927Z,5.27
2018-01-07T17:55:36.717Z,5.34
2018-01-07T17:58:07.534Z,5.38
2018-01-07T18:00:39.350Z,5.36
2018-01-07T18:03:10.144Z,5.42
2018-01-07T18:05:40.967Z,5.33
2018-01-07T18:11:09.144Z,5.26
2018-01-07T18:13:44.174Z,5.25
2018-01-07T18:16:14.995Z,5.37
2018-01-07T18:18:45.803Z,5.42
2018-01-07T18:21:16.638Z,5.47
2018-01-07T18:23:47.531Z,5.56
2018-01-07T18:26:20.420Z,5.63
2018-01-07T18:28:51.240Z,5.62
2018-01-07T18:31:22.051Z,5.68
2018-01-07T18:33:52.842Z,5.70
2018-01-07T18:36:23.671Z,5.80
2018-01-07T18:38:54.680Z,5.77
2018-01-07T18:41:27.656Z,5.75
2018-01-07T18:43:58.478Z,5.80
2018-01-07T18:46:29.332Z,5.83
2018-01-07T18:49:00.146Z,5.81
2018-01-07T18:51:30.963Z,5.83
2018-01-07T18:54:03.831Z,5.84
2018-01-07T18:56:34.660Z,5.85
2018-01-07T18:59:05.483Z,5.85
2018-01-07T19:01:36.311Z,5.77
2018-01-07T19:04:07.132Z,5.86
2018-01-07T19:06:38.029Z,5.86
2018-01-07T19:09:08.819Z,5.88
2018-01-07T19:11:39.643Z,5.88
2018-01-07T19:14:10.481Z,5.87
2018-01-07T19:16:41.304Z,5.91
2018-01-07T19:19:12.133Z,5.92
2018-01-07T19:21:43.022Z,5.96
2018-01-07T19:24:13.943Z,5.89
2018-01-07T19:26:44.758Z,5.89
2018-01-07T19:29:15.564Z,5.97
2018-01-07T19:31:46.397Z,5.92
2018-01-07T19:34:17.212Z,5.93
2018-01-07T19:36:50.089Z,5.96
2018-01-07T19:39:24.984Z,5.92
2018-01-07T19:41:55.837Z,5.89
2018-01-07T19:44:26.719Z,5.94
2018-01-07T19:46:57.532Z,5.92
2018-01-07T19:49:28.432Z,5.94
2018-01-07T19:51:59.402Z,5.94
2018-01-07T19:54:30.295Z,5.98
2018-01-07T19:57:01.125Z,5.94
2018-01-07T19:59:31.940Z,5.92
2018-01-07T20:02:03.867Z,5.98
2018-01-07T20:04:34.679Z,5.98
2018-01-07T20:07:05.493Z,6.01
2018-01-07T20:09:37.395Z,6.06
2018-01-07T20:12:08.204Z,5.99
2018-01-07T20:14:39.060Z,5.98
2018-01-07T20:17:09.845Z,6.05
2018-01-07T20:19:40.684Z,6.03
2018-01-07T20:22:11.620Z,6.04
2018-01-07T20:24:42.430Z,6.12
2018-01-07T20:27:13.336Z,5.96
2018-01-07T20:29:44.151Z,6.00
2018-01-07T20:32:14.996Z,6.00
2018-01-07T20:34:45.813Z,6.00
2018-01-07T20:37:16.608Z,6.06
2018-01-07T20:39:47.390Z,6.05
2018-01-07T20:42:19.308Z,6.02
2018-01-07T20:44:50.132Z,6.07
2018-01-07T20:47:20.968Z,6.08
2018-01-07T20:49:51.780Z,6.15
2018-01-07T20:52:23.680Z,6.11
2018-01-07T20:54:54.493Z,6.10
2018-01-07T20:57:25.368Z,6.14
2018-01-07T20:59:56.197Z,6.13
2018-01-07T21:02:27.137Z,6.13
2018-01-07T21:04:57.968Z,6.13
2018-01-07T21:07:28.796Z,6.13
2018-01-07T21:09:59.609Z,6.11
2018-01-07T21:12:30.492Z,6.16
2018-01-07T21:15:01.409Z,6.12
2018-01-07T21:17:37.968Z,6.15
2018-01-07T21:20:08.814Z,6.09
2018-01-07T21:22:39.671Z,6.08
2018-01-07T21:25:10.487Z,6.02
2018-01-07T21:27:41.324Z,5.98
2018-01-07T21:30:12.244Z,5.96
2018-01-07T21:32:43.085Z,5.96
2018-01-07T21:35:13.940Z,5.89
2018-01-07T21:37:44.889Z,5.83
2018-01-07T21:40:17.843Z,5.80
2018-01-07T21:42:48.866Z,5.83
2018-01-07T21:45:20.013Z,5.79
2018-01-07T21:47:50.844Z,5.75
2018-01-07T21:50:21.933Z,5.76
2018-01-07T21:52:53.139Z,5.67
2018-01-07T21:55:23.983Z,5.65
2018-01-07T21:57:54.856Z,5.66
2018-01-07T22:00:39.188Z,5.52
2018-01-07T22:03:22.322Z,5.56
2018-01-07T22:05:54.247Z,5.53
2018-01-07T22:08:26.092Z,5.57
2018-01-07T22:10:56.978Z,5.53
2018-01-07T22:13:27.911Z,5.49
2018-01-07T22:15:58.781Z,5.53
2018-01-07T22:18:29.612Z,5.38
2018-01-07T22:21:00.407Z,5.38
2018-01-07T22:23:31.363Z,5.38
2018-01-07T22:26:02.151Z,5.33
2018-01-07T22:28:33.036Z,5.40
2018-01-07T22:31:03.884Z,5.36
2018-01-07T22:33:34.796Z,5.33
2018-01-07T22:36:05.649Z,5.42
2018-01-07T22:38:36.483Z,5.39
2018-01-07T22:41:07.327Z,5.34
2018-01-07T22:43:38.431Z,5.27
2018-01-07T22:46:11.371Z,5.26
2018-01-07T22:48:43.100Z,5.25
2018-01-07T22:51:13.913Z,5.09
2018-01-07T22:53:44.747Z,4.98
2018-01-07T22:56:15.600Z,5.04
2018-01-07T22:58:46.450Z,5.03
2018-01-07T23:01:17.346Z,5.02
2018-01-07T23:03:48.284Z,4.98
2018-01-07T23:06:19.977Z,4.90
2018-01-07T23:08:50.976Z,4.98
2018-01-07T23:11:26.421Z,4.95
2018-01-07T23:13:57.531Z,4.82
2018-01-07T23:16:34.291Z,4.78
2018-01-07T23:19:05.261Z,4.75
2018-01-07T23:21:36.112Z,4.75
2018-01-07T23:24:06.919Z,4.90
2018-01-07T23:26:37.684Z,5.06
2018-01-07T23:29:08.515Z,5.24
2018-01-07T23:31:41.408Z,5.10
2018-01-07T23:34:12.214Z,5.03
2018-01-07T23:36:43.012Z,5.08
2018-01-07T23:39:13.829Z,5.00
2018-01-07T23:41:44.635Z,5.05
2018-01-07T23:44:15.462Z,4.85
2018-01-07T23:46:46.264Z,4.92
2018-01-07T23:49:17.138Z,4.74
2018-01-07T23:51:47.937Z,4.75
2018-01-07T23:54:18.743Z,4.79
2018-01-07T23:56:49.531Z,4.68
2018-01-07T23:59:20.390Z,4.55
